Tiempo atmosférico en la estación meteorológica de Es Mercadal, Illes Balears (77 m.)



Fecha
DESCASC
Temp. máxima en grados centígrados (hora)
DESCASC
Temp. mínima en grados centígrados (hora)
DESCASC
Temp. media en grados centígrados
DESCASC
Racha de viento máxima en m/sg (hora)
DESCASC
Velocidad máxima media en intervalos de 10 minutos(hora)
DESCASC
Precipitaciones diarias en mm
DESCASC
Precipitaciones de 00:00 a 06:00 en mm
DESCASC
Precipitaciones de 06:00 a 12:00 en mm
DESCASC
Precipitaciones de 12:00 a 18:00 en mm
DESCASC
Precipitaciones de 18:00 a 24:00 en mm
DESCASC
16-06-2019 24.5 (17:10) 17.3 (04:40) 20.9 10.83 (09:00) 7.22 (09:20) 0 0 0 0 0
15-06-2019 26.9 (14:30) 18.5 (23:59) 22.7 13.33 (09:50) 9.44 (08:30) 0 0 0 0 0
14-06-2019 24.8 (17:10) 19.4 (00:50) 22.1 16.39 (13:40) 11.39 (13:50) 0 0 0 0 0
13-06-2019 23.3 (15:20) 13.4 (00:00) 18.3 14.17 (22:00) 9.17 (09:20) 0 0 0 0 0
12-06-2019 20 (14:20) 15.1 (00:00) 17.6 10 (08:40) 6.67 (08:50) 0 0 0 0 0
11-06-2019 25 (14:20) 14.4 (00:00) 19.7 10 (15:20) 6.39 (15:20) 0 0 0 0 0
10-06-2019 21.9 (15:10) 16.3 (00:00) 19.1 14.17 (12:00) 10 (12:40) 0 0 0 0 0
09-06-2019 28.8 (10:50) 16.8 (00:00) 22.8 9.72 (07:40) 5.83 (11:10) 0 0 0 0 0
08-06-2019 21.3 (15:00) 17.2 (00:00) 19.3 14.72 (12:30) 10 (12:30) 0 0 0 0 0
07-06-2019 27.5 (14:30) 16 (00:00) 21.8 11.11 (14:40) 5 (11:00) 0 0 0 0 0
06-06-2019 24.8 (15:50) 15.2 (00:00) 20 10.28 (16:50) 6.11 (16:50) 0 0 0 0 0
05-06-2019 25.8 (17:00) 17.1 (00:00) 21.4 15.28 (19:00) 10 (13:30) 0 0 0 0 0
04-06-2019 28.4 (15:30) 16.2 (00:00) 22.3 10.83 (12:30) 7.5 (12:30) 0 0 0 0 0
03-06-2019 27.5 (13:00) 15.5 (00:00) 21.5 8.89 (13:00) 5.83 (17:30) 0 0 0 0 0
02-06-2019 26.9 (14:30) 14.8 (00:00) 20.8 8.06 (15:20) 5 (15:00) 0 0 0 0 0
01-06-2019 26.5 (15:40) 12.9 (00:00) 19.7 7.78 (15:10) 5.28 (14:00) 0 0 0 0 0
31-05-2019 23.1 (16:10) 14.8 (00:00) 19 7.22 (13:40) 5 (15:00) 0 0 0 0 0
30-05-2019 21.1 (16:10) 14.5 (00:00) 17.8 12.78 (10:00) 8.89 (09:50) 0 0 0 0 0
29-05-2019 19.8 (13:30) 14.7 (00:00) 17.2 13.61 (13:10) 9.72 (13:10) 0 0 0 0 0
28-05-2019 22.5 (11:10) 14.4 (00:00) 18.4 10.56 (16:10) 7.22 (15:20) 0 0 0 0 0
27-05-2019 20.9 (12:50) 15.4 (00:00) 18.1 13.89 (10:50) 8.06 (10:50) 0 0 0 0 0
26-05-2019 20 (14:50) 16.1 (00:00) 18.1 15.83 (18:00) 10.28 (18:30) 0.4 0.2 0.2 0 0
25-05-2019 17.5 (14:40) 15.1 (00:00) 16.3 12.22 (15:30) 8.33 (15:40) 0 0 0 0 0
24-05-2019 25.4 (10:30) 15.3 (00:00) 20.3 7.22 (14:10) 5 (14:10) 0.4 0 0 0 0.4
23-05-2019 25.5 (15:20) 14.4 (00:00) 19.9 9.44 (18:00) 6.67 (17:50) 0 0 0 0 0
22-05-2019 24.9 (15:10) 14 (00:00) 19.4 7.78 (16:20) 5 (20:20) 0 0 0 0 0

Gráficas

Temp. máximas Temp. mínimas Temp. medias Precipitaciones Rachas de viento máximas Velocidades máximas media en intervalos de 10 minutos

Datos horarios

Fecha y hora oficial Temperatura (ºC) Velocidad del viento (km/h) Dirección del viento Racha (km/h) Dirección de racha Precipitación (mm) Presión (hPa) Tendencia (hPa) Humedad (%)
2019-06-20 23:00:00 21.1 10 Sur 15 Sur 0 -- -- 83
2019-06-20 22:00:00 21.3 7 Sudoeste 14 Sudoeste 0 -- -- 81
2019-06-20 21:00:00 21.8 9 Sudoeste 18 Sur 0 -- -- 78
2019-06-20 20:00:00 23.8 13 Sur 20 Sur 0 -- -- 69
2019-06-20 19:00:00 26.3 12 Sudoeste 19 Sudoeste 0 -- -- 60
2019-06-20 18:00:00 27.3 10 Sur 19 Sudoeste 0 -- -- 55
2019-06-20 17:00:00 26.5 13 Sudoeste 26 Sudoeste 0 -- -- 56
2019-06-20 16:00:00 27.2 15 Sudoeste 27 Sur 0 -- -- 55
2019-06-20 15:00:00 27.6 15 Sur 25 Sur 0 -- -- 54
2019-06-20 14:00:00 26.6 12 Norte 21 Norte 0 -- -- 58
2019-06-20 13:00:00 25.1 12 Nordeste 26 Este 0 -- -- 62
2019-06-20 12:00:00 24.1 15 Nordeste 26 Nordeste 0 -- -- 69
2019-06-20 11:00:00 23.7 15 Nordeste 25 Norte 0 -- -- 71
2019-06-20 10:00:00 23.3 15 Nordeste 22 Norte 0 -- -- 70
2019-06-20 09:00:00 22.1 10 Norte 15 Norte 0 -- -- 76
2019-06-20 08:00:00 20.6 4 Nordeste 6 Nordeste 0 -- -- 85
2019-06-20 07:00:00 19.1 4 Oeste 13 Sudoeste 0 -- -- 89
2019-06-20 06:00:00 19.1 11 Sudoeste 21 Sudoeste 0 -- -- 89
2019-06-20 05:00:00 19.3 13 Sudoeste 17 Sudoeste 0 -- -- 90
2019-06-20 04:00:00 19.5 8 Sur 15 Sur 0 -- -- 90
2019-06-20 03:00:00 19.7 4 Sur 22 Sudoeste 0 -- -- 90
2019-06-20 02:00:00 19.7 11 Sur 16 Sur 0 -- -- 90
2019-06-20 01:00:00 20 9 Sur 27 Sudoeste 0 -- -- 88
2019-06-20 00:00:00 20.4 16 Sur 28 Sur 0 -- -- 88
2019-06-19 23:00:00 20.5 12 Sur 25 Sur 0 -- -- 88
2019-06-19 22:00:00 20.7 17 Sur 27 Sur 0 -- -- 86
2019-06-19 21:00:00 22 13 Sur 25 Sudoeste 0 -- -- 72
2019-06-19 20:00:00 23.8 15 Sur 29 Sur 0 -- -- 58
2019-06-19 19:00:00 25.1 18 Sur 28 Sur 0 -- -- 46
2019-06-19 18:00:00 25 22 Sur 31 Sur 0 -- -- 52
2019-06-19 17:00:00 25.3 24 Sur 35 Sur 0 -- -- 54
2019-06-19 16:00:00 25.4 23 Sur 34 Sur 0 -- -- 48
2019-06-19 15:00:00 25.6 23 Sur -- -- -- -- -- 50
2019-06-19 14:00:00 -- -- -- -- -- -- -- -- --
2019-06-19 13:00:00 -- -- -- -- -- -- -- -- --
2019-06-19 12:00:00 -- -- -- -- -- -- -- -- --
2019-06-19 11:00:00 -- -- -- -- -- -- -- -- --
2019-06-19 10:00:00 -- -- -- -- -- -- -- -- --
2019-06-19 09:00:00 -- -- -- -- -- -- -- -- --
2019-06-19 08:00:00 -- -- -- -- -- -- -- -- --
2019-06-19 07:00:00 -- -- -- -- -- -- -- -- --
2019-06-19 06:00:00 -- -- -- -- -- -- -- -- --
2019-06-19 05:00:00 -- -- -- -- -- -- -- -- --
2019-06-19 04:00:00 -- -- -- -- -- -- -- -- --
2019-06-19 03:00:00 -- -- -- -- -- -- -- -- --
2019-06-19 02:00:00 -- -- -- -- -- -- -- -- --
2019-06-19 01:00:00 -- -- -- -- -- -- -- -- --
2019-06-19 00:00:00 -- -- -- -- -- -- -- -- --
2019-06-18 23:00:00 -- -- -- -- -- -- -- -- --
2019-06-18 22:00:00 -- -- -- -- -- -- -- -- --
2019-06-18 21:00:00 -- -- -- -- -- -- -- -- --
2019-06-18 20:00:00 -- -- -- -- -- -- -- -- --
2019-06-18 19:00:00 26.1 17 Sudoeste 26 Sudoeste 0 -- -- 34
2019-06-18 18:00:00 27.2 15 Sur 27 Sur 0 -- -- 33
2019-06-18 17:00:00 27.5 19 Sur 28 Sur 0 -- -- 34
2019-06-18 16:00:00 28.1 16 Sur 26 Sudoeste 0 -- -- 31
2019-06-18 15:00:00 28.1 17 Sur 29 Sudoeste 0 -- -- 32
2019-06-18 14:00:00 27.7 18 Sudoeste 29 Sudoeste 0 -- -- 34
2019-06-18 13:00:00 26.9 17 Sur 26 Sudoeste 0 -- -- 40
2019-06-18 12:00:00 27.3 14 Sur 27 Sudoeste 0 -- -- 43
2019-06-18 11:00:00 27.8 9 Este 19 Este 0 -- -- 36
2019-06-18 10:00:00 26.1 4 Nordeste 10 Nordeste 0 -- -- 42
2019-06-18 09:00:00 23.6 5 Nordeste 9 Nordeste 0 -- -- 54
2019-06-18 08:00:00 21.4 5 Nordeste 8 Nordeste 0 -- -- 67
2019-06-18 07:00:00 18.1 0 Calma 3 Oeste 0 -- -- 67
2019-06-18 06:00:00 17.5 2 Este 4 Sur 0 -- -- 64
2019-06-18 05:00:00 17.1 0 Calma 3 Oeste 0 -- -- 63
2019-06-18 04:00:00 17.1 0 Calma 4 Sudoeste 0 -- -- 68
2019-06-18 03:00:00 17.2 3 Sudoeste 5 Sudoeste 0 -- -- 75
2019-06-18 02:00:00 17.7 0 Calma 4 Sudoeste 0 -- -- 79
2019-06-18 01:00:00 18.5 3 Sudoeste 8 Sudoeste 0 -- -- 77
2019-06-18 00:00:00 19.1 5 Sur 14 Sudoeste 0 -- -- 81
2019-06-17 23:00:00 19.6 7 Sudoeste 14 Sudoeste 0 -- -- 79
2019-06-17 22:00:00 20.1 12 Sudoeste 16 Sudoeste 0 -- -- 76
2019-06-17 21:00:00 22 8 Sudoeste 13 Sudoeste 0 -- -- 63
2019-06-17 20:00:00 24.2 9 Sudoeste 15 Sur 0 -- -- 57
2019-06-17 19:00:00 25.5 11 Sudoeste 22 Sur 0 -- -- 53
2019-06-17 18:00:00 26.3 17 Sudoeste 27 Sudoeste 0 -- -- 48
2019-06-17 17:00:00 26.7 13 Norte 21 Norte 0 -- -- 34
2019-06-17 16:00:00 26.9 14 Norte 21 Noroeste 0 -- -- 28
2019-06-17 15:00:00 26 14 Norte 26 Norte 0 -- -- 32
2019-06-17 14:00:00 26 13 Norte 23 Nordeste 0 -- -- 34
2019-06-17 13:00:00 25.3 15 Norte 25 Norte 0 -- -- 42
2019-06-17 12:00:00 24.9 16 Norte 23 Norte 0 -- -- 40
2019-06-17 11:00:00 23.2 18 Noroeste 28 Norte 0 -- -- 49
2019-06-17 10:00:00 22.3 17 Norte 29 Norte 0 -- -- 56
2019-06-17 09:00:00 20.6 15 Norte 23 Norte 0 -- -- 68
2019-06-17 08:00:00 19.4 5 Nordeste 10 Norte 0 -- -- 79
2019-06-17 07:00:00 17.8 4 Nordeste 6 Oeste 0 -- -- 83
2019-06-17 06:00:00 17.6 3 Sudoeste 12 Oeste 0 -- -- 84
2019-06-17 05:00:00 18 9 Oeste 21 Sudoeste 0 -- -- 85
2019-06-17 04:00:00 17.9 12 Sudoeste 24 Sudoeste 0 -- -- 73
2019-06-17 03:00:00 17.9 13 Sudoeste 18 Sudoeste 0 -- -- 85
2019-06-17 02:00:00 17.8 11 Sudoeste 17 Sudoeste 0 -- -- 84
2019-06-17 01:00:00 17.8 5 Sudoeste 10 Sudoeste 0 -- -- 87
2019-06-17 00:00:00 18.2 8 Sudoeste 16 Sudoeste 0 -- -- 85
2019-06-16 23:00:00 18.9 10 Sudoeste 17 Sudoeste 0 -- -- 82
2019-06-16 22:00:00 19.9 2 Sudoeste 9 Sudoeste 0 -- -- 74
2019-06-16 21:00:00 21.1 3 Oeste 10 Nordeste 0 -- -- 57
2019-06-16 20:00:00 21.7 8 Nordeste 13 Nordeste 0 -- -- 51
2019-06-16 19:00:00 23.4 8 Nordeste 15 Nordeste 0 -- -- 43
2019-06-16 18:00:00 23.7 9 Nordeste 18 Norte 0 -- -- 44
2019-06-16 17:00:00 23.7 9 Nordeste 21 Nordeste 0 -- -- 46
2019-06-16 16:00:00 23 12 Nordeste 22 Nordeste 0 -- -- 51
2019-06-16 15:00:00 23 13 Nordeste 26 Norte 0 -- -- 52
2019-06-16 14:00:00 22.9 13 Norte 31 Norte 0 -- -- 58
2019-06-16 13:00:00 21.7 22 Norte 35 Norte 0 -- -- 61
2019-06-16 12:00:00 21 23 Norte 37 Norte 0 -- -- 64
2019-06-16 11:00:00 20.6 25 Norte 37 Norte 0 -- -- 66
2019-06-16 10:00:00 20.3 22 Norte 37 Norte 0 -- -- 68
2019-06-16 09:00:00 19.4 25 Norte 39 Norte 0 -- -- 70
2019-06-16 08:00:00 19 20 Nordeste 29 Nordeste 0 -- -- 72
2019-06-16 07:00:00 17.8 18 Norte 29 Norte 0 -- -- 77
2019-06-16 06:00:00 17.6 17 Norte 26 Norte 0 -- -- 77
2019-06-16 05:00:00 17.4 15 Norte 23 Norte 0 -- -- 77
2019-06-16 04:00:00 17.6 19 Norte 28 Nordeste 0 -- -- 78
2019-06-16 03:00:00 17.6 19 Norte 29 Norte 0 -- -- 81
2019-06-16 02:00:00 17.8 18 Norte 29 Norte 0 -- -- 82
2019-06-16 01:00:00 18 16 Norte 31 Nordeste 0 -- -- 82
2019-06-16 00:00:00 18.5 16 Norte 32 Norte 0 -- -- 82
2019-06-15 23:00:00 18.9 16 Norte 27 Norte 0 -- -- 86
2019-06-15 22:00:00 19.5 13 Norte 19 Norte 0 -- -- 84
2019-06-15 21:00:00 20.2 10 Nordeste 17 Norte 0 -- -- 80
2019-06-15 20:00:00 21.6 12 Nordeste 21 Norte 0 -- -- 71
2019-06-15 19:00:00 22.4 15 Norte 23 Norte 0 -- -- 66
2019-06-15 18:00:00 23.1 15 Norte 25 Norte 0 -- -- 61
2019-06-15 17:00:00 23.6 15 Norte 28 Norte 0 -- -- 62
2019-06-15 16:00:00 24.4 15 Norte 23 Norte 0 -- -- 62
2019-06-15 15:00:00 25.1 13 Norte 20 Sudoeste 0 -- -- 62
2019-06-15 14:00:00 26.6 12 Oeste 29 Sudoeste 0 -- -- 51
2019-06-15 13:00:00 24.1 18 Sudoeste 28 Sudoeste 0 -- -- 63
2019-06-15 12:00:00 23.1 20 Sudoeste 37 Sudoeste 0 -- -- 65
2019-06-15 11:00:00 21.7 28 Sudoeste 47 Sudoeste 0 -- -- 68
2019-06-15 10:00:00 21.1 32 Sudoeste 48 Sudoeste 0 -- -- 69
2019-06-15 09:00:00 20.6 32 Sudoeste 48 Sudoeste 0 -- -- 71
2019-06-15 08:00:00 20 30 Sudoeste 43 Sudoeste 0 -- -- 77
2019-06-15 07:00:00 19.2 22 Sudoeste 39 Sur 0 -- -- 85
2019-06-15 06:00:00 18.9 23 Sur 37 Sudoeste 0 -- -- 88
2019-06-15 05:00:00 18.6 15 Sur 28 Sur 0 -- -- 89
2019-06-15 04:00:00 18.8 21 Sur 32 Sur 0 -- -- 89
2019-06-15 03:00:00 18.8 16 Sur 27 Sudoeste 0 -- -- 88
2019-06-15 02:00:00 18.9 19 Sur 31 Sudoeste 0 -- -- 89
2019-06-15 01:00:00 19.4 22 Sudoeste 31 Sur 0 -- -- 90
2019-06-15 00:00:00 19.6 21 Sudoeste 38 Sudoeste 0 -- -- 88
2019-06-14 23:00:00 19.7 18 Sur 27 Sudoeste 0 -- -- 86
2019-06-14 22:00:00 19.9 10 Sur 15 Sur 0 -- -- 76
2019-06-14 21:00:00 21.3 9 Sur 21 Sudoeste 0 -- -- 68
2019-06-14 20:00:00 22.7 15 Sudoeste 28 Sudoeste 0 -- -- 62
2019-06-14 19:00:00 23.7 19 Sudoeste 32 Oeste 0 -- -- 59
2019-06-14 18:00:00 24.6 21 Sudoeste 33 Norte 0 -- -- 55
2019-06-14 17:00:00 23.7 26 Sudoeste 47 Oeste 0 -- -- 60
2019-06-14 16:00:00 23.6 31 Oeste 52 Oeste 0 -- -- 63
2019-06-14 15:00:00 23.9 27 Oeste 58 Oeste 0 -- -- 65
2019-06-14 14:00:00 23.2 32 Oeste 59 Oeste 0 -- -- 69
2019-06-14 13:00:00 22.6 35 Oeste 54 Oeste 0 -- -- 71
2019-06-14 12:00:00 23.4 25 Sudoeste 49 Sudoeste 0 -- -- 70
2019-06-14 11:00:00 21.3 29 Sudoeste 57 Sudoeste 0 -- -- 81
2019-06-14 10:00:00 22.7 25 Sudoeste 42 Sudoeste 0 -- -- 79
2019-06-14 09:00:00 20.5 23 Sur 44 Sur 0 -- -- 91
2019-06-14 08:00:00 20.8 29 Sur 50 Sur 0 -- -- 88
2019-06-14 07:00:00 21.4 26 Sur 38 Sur 0 -- -- 82
2019-06-14 06:00:00 20.7 14 Sudeste 37 Este 0 -- -- 82
2019-06-14 05:00:00 20.6 15 Sudeste 37 Este 0 -- -- 79
2019-06-14 04:00:00 20.9 26 Este 46 Este 0 -- -- 76
2019-06-14 03:00:00 20.1 20 Este 42 Este 0 -- -- 79
2019-06-14 02:00:00 19.5 14 Nordeste 33 Nordeste 0 -- -- 84
2019-06-14 01:00:00 19.4 15 Nordeste 25 Nordeste 0 -- -- 84
2019-06-14 00:00:00 19.6 15 Nordeste 25 Nordeste 0 -- -- 82
2019-06-13 23:00:00 19.5 15 Norte 43 Este 0 -- -- 81
2019-06-13 22:00:00 20.4 30 Este 51 Este 0 -- -- 72
2019-06-13 21:00:00 20 18 Este 39 Este 0 -- -- 76
2019-06-13 20:00:00 20.7 26 Este 44 Este 0 -- -- 71
2019-06-13 19:00:00 21.7 19 Este 44 Este 0 -- -- 67
2019-06-13 18:00:00 22.2 27 Este 45 Este 0 -- -- 61
2019-06-13 17:00:00 22.4 25 Este 43 Nordeste 0 -- -- 60
2019-06-13 16:00:00 22.2 29 Nordeste 41 Nordeste 0 -- -- 58
2019-06-13 15:00:00 22.8 24 Este 42 Este 0 -- -- 53
2019-06-13 14:00:00 21.5 27 Nordeste 42 Este 0 -- -- 54
2019-06-13 13:00:00 22 24 Nordeste 43 Nordeste 0 -- -- 52
2019-06-13 12:00:00 21.4 28 Nordeste 49 Nordeste 0 -- -- 52
2019-06-13 11:00:00 20.5 23 Este 43 Este 0 -- -- 56
2019-06-13 10:00:00 19.6 26 Nordeste 48 Nordeste 0 -- -- 64
2019-06-13 09:00:00 19.5 27 Nordeste 41 Nordeste 0 -- -- 64
2019-06-13 08:00:00 18.1 13 Nordeste 21 Nordeste 0 -- -- 72
2019-06-13 07:00:00 14.6 3 Noroeste 8 Norte 0 -- -- 88
2019-06-13 06:00:00 13.8 4 Norte 6 Norte 0 -- -- 85
2019-06-13 05:00:00 14.5 3 Nordeste 6 Este 0 -- -- 86
2019-06-13 04:00:00 13.9 3 Noroeste 6 Norte 0 -- -- 82
2019-06-13 03:00:00 14.3 3 Sudoeste 5 Sudoeste 0 -- -- 83
2019-06-13 02:00:00 14.2 2 Norte 6 Nordeste 0 -- -- 82
2019-06-13 01:00:00 15.9 4 Nordeste 10 Nordeste 0 -- -- 75
2019-06-13 00:00:00 16.2 3 Sudeste 12 Este 0 -- -- 73
2019-06-12 23:00:00 16.4 3 Nordeste 12 Nordeste 0 -- -- 72
2019-06-12 22:00:00 16.6 2 Nordeste 17 Este 0 -- -- 69
2019-06-12 21:00:00 17.4 11 Este 21 Este 0 -- -- 65
2019-06-12 20:00:00 18.8 13 Este 24 Este 0 -- -- 60
2019-06-12 19:00:00 19.2 18 Nordeste 31 Nordeste 0 -- -- 56
2019-06-12 18:00:00 19.5 21 Nordeste 28 Nordeste 0 -- -- 56
2019-06-12 17:00:00 19.8 18 Nordeste 30 Nordeste 0 -- -- 54
2019-06-12 16:00:00 19 17 Nordeste 27 Nordeste 0 -- -- 56
2019-06-12 15:00:00 19.5 16 Nordeste 27 Nordeste 0 -- -- 54
2019-06-12 14:00:00 19.4 18 Nordeste 31 Nordeste 0 -- -- 54
2019-06-12 13:00:00 19.6 16 Nordeste 30 Norte 0 -- -- 53
2019-06-12 12:00:00 18.6 19 Nordeste 31 Nordeste 0 -- -- 56
2019-06-12 11:00:00 18.4 14 Nordeste 25 Nordeste 0 -- -- 58
2019-06-12 10:00:00 18.1 15 Nordeste 31 Nordeste 0 -- -- 58
2019-06-12 09:00:00 17.7 23 Nordeste 36 Nordeste 0 -- -- 61
2019-06-12 08:00:00 16.9 15 Nordeste 22 Nordeste 0 -- -- 67
2019-06-12 07:00:00 15.5 11 Nordeste 19 Nordeste 0 -- -- 76
2019-06-12 06:00:00 15.5 15 Nordeste 23 Nordeste 0 -- -- 77
2019-06-12 05:00:00 15.3 12 Nordeste 18 Nordeste 0 -- -- 76
2019-06-12 04:00:00 15.6 12 Nordeste 25 Norte 0 -- -- 72
2019-06-12 03:00:00 15.8 20 Norte 30 Norte 0 -- -- 72
2019-06-12 02:00:00 15.9 15 Norte 31 Norte 0 -- -- 74
2019-06-12 01:00:00 15.7 16 Norte 30 Norte 0 -- -- 78
2019-06-12 00:00:00 16 19 Norte 32 Norte 0 -- -- 81
2019-06-11 23:00:00 16.5 19 Norte 30 Norte 0 -- -- 80
2019-06-11 22:00:00 16.7 18 Nordeste 27 Nordeste 0 -- -- 80
2019-06-11 21:00:00 17.3 19 Nordeste 29 Nordeste 0 -- -- 80
2019-06-11 20:00:00 17.8 19 Nordeste 32 Nordeste 0 -- -- 79
2019-06-11 19:00:00 19.2 19 Nordeste 31 Norte 0 -- -- 75
2019-06-11 18:00:00 20.1 18 Norte 31 Norte 0 -- -- 71
2019-06-11 17:00:00 23.4 13 Sudoeste 28 Sudoeste 0 -- -- 44
2019-06-11 16:00:00 23.8 19 Sur 36 Sur 0 -- -- 40
2019-06-11 15:00:00 24.2 19 Sudoeste 31 Sudoeste 0 -- -- 43
2019-06-11 14:00:00 24.2 18 Sur 36 Sur 0 -- -- 44
2019-06-11 13:00:00 23.3 15 Este 31 Este 0 -- -- 51
2019-06-11 12:00:00 22.9 11 Sudeste 27 Nordeste 0 -- -- 54
2019-06-11 11:00:00 21.7 16 Nordeste 25 Nordeste 0 -- -- 58
2019-06-11 10:00:00 20.8 10 Nordeste 18 Nordeste 0 -- -- 61
2019-06-11 09:00:00 19.3 10 Nordeste 21 Nordeste 0 -- -- 66
2019-06-11 08:00:00 17.7 10 Nordeste 18 Nordeste 0 -- -- 75
2019-06-11 07:00:00 15.8 9 Nordeste 14 Norte 0 -- -- 84
2019-06-11 06:00:00 15 6 Norte 9 Norte 0 -- -- 86
2019-06-11 05:00:00 15.1 6 Norte 10 Norte 0 -- -- 86
2019-06-11 04:00:00 14.7 8 Norte 9 Norte 0 -- -- 85
2019-06-11 03:00:00 14.6 2 Norte 7 Noroeste 0 -- -- 86
2019-06-11 02:00:00 15.3 3 Sudeste 8 Noroeste 0 -- -- 83
2019-06-11 01:00:00 14.9 5 Noroeste 8 Noroeste 0 -- -- 83
2019-06-11 00:00:00 16.3 0 Calma 4 Oeste 0 -- -- 79
2019-06-10 23:00:00 17.1 0 Calma 12 Nordeste 0 -- -- 75
2019-06-10 22:00:00 17.9 10 Nordeste 16 Nordeste 0 -- -- 72
2019-06-10 21:00:00 18.6 10 Nordeste 23 Norte 0 -- -- 70
2019-06-10 20:00:00 19.8 13 Norte 26 Norte 0 -- -- 64
2019-06-10 19:00:00 20.5 18 Norte 31 Norte 0 -- -- 60
2019-06-10 18:00:00 20.9 20 Norte 36 Norte 0 -- -- 58
2019-06-10 17:00:00 21.1 26 Norte 44 Norte 0 -- -- 56
2019-06-10 16:00:00 21.8 28 Norte 49 Noroeste 0 -- -- 57
2019-06-10 15:00:00 21.2 35 Norte 49 Norte -- -- -- 59
2019-06-10 14:00:00 21.2 30 Norte 44 Norte 0 -- -- 64
2019-06-10 13:00:00 20.7 28 Norte 49 Norte 0 -- -- 64
2019-06-10 12:00:00 20.2 35 Norte 51 Norte 0 -- -- 65
2019-06-10 11:00:00 19.6 27 Norte 46 Norte 0 -- -- 71
2019-06-10 10:00:00 18.9 25 Norte 39 Norte 0 -- -- 78
2019-06-10 09:00:00 18.5 23 Norte 37 Norte 0 -- -- 85
2019-06-10 08:00:00 18.6 14 Noroeste 27 Noroeste 0 -- -- 87
2019-06-10 07:00:00 18.6 9 Norte 18 Noroeste 0 -- -- 89
2019-06-10 06:00:00 18.5 10 Noroeste 20 Norte 0 -- -- 89
2019-06-10 05:00:00 18.3 11 Noroeste 18 Noroeste 0 -- -- 91
2019-06-10 04:00:00 18 9 Norte 24 Noroeste 0 -- -- 91
2019-06-10 03:00:00 17.8 18 Noroeste 30 Noroeste 0 -- -- 90
2019-06-10 02:00:00 18.2 15 Noroeste 28 Noroeste 0 -- -- 87
2019-06-10 01:00:00 18.4 11 Noroeste 24 Noroeste 0 -- -- 87
2019-06-10 00:00:00 18.8 14 Noroeste 23 Oeste 0 -- -- 87
2019-06-09 23:00:00 18.9 3 Noroeste 11 Noroeste 0 -- -- 85
2019-06-09 22:00:00 19.6 0 Calma 7 Oeste 0 -- -- 80
2019-06-09 21:00:00 20.2 5 Norte 12 Norte 0 -- -- 78
2019-06-09 20:00:00 21.8 8 Norte 15 Norte 0 -- -- 70
2019-06-09 19:00:00 22.9 8 Norte 21 Norte 0 -- -- 65
2019-06-09 18:00:00 23.9 14 Norte 28 Norte 0 -- -- 60
2019-06-09 17:00:00 24.4 18 Norte 30 Norte 0 -- -- 58
2019-06-09 16:00:00 26.8 20 Norte 31 Norte 0 -- -- 44
2019-06-09 15:00:00 26.7 15 Norte 25 Norte 0 -- -- 44
2019-06-09 14:00:00 26.6 12 Norte 20 Norte 0 -- -- 59
2019-06-09 13:00:00 26.5 11 Sur 31 Sudoeste 0 -- -- 60
2019-06-09 12:00:00 26.6 18 Sudoeste 32 Sudoeste 0 -- -- 58
2019-06-09 11:00:00 28.8 19 Sudoeste 31 Sudoeste 0 -- -- 45
2019-06-09 10:00:00 25.6 14 Sudeste 22 Sudeste 0 -- -- 59
2019-06-09 09:00:00 21.8 9 Este 26 Sudeste 0 -- -- 74
2019-06-09 08:00:00 20.2 11 Este 35 Este 0 -- -- 77
2019-06-09 07:00:00 19.2 15 Este 27 Este 0 -- -- 80
2019-06-09 06:00:00 18.2 10 Nordeste 21 Norte 0 -- -- 83
2019-06-09 05:00:00 18.2 13 Nordeste 21 Nordeste 0 -- -- 82
2019-06-09 04:00:00 18.1 14 Nordeste 24 Nordeste 0 -- -- 81
2019-06-09 03:00:00 18.2 15 Nordeste 24 Nordeste 0 -- -- 78
2019-06-09 02:00:00 18 16 Nordeste 23 Nordeste 0 -- -- 76
2019-06-09 01:00:00 17.5 16 Nordeste 24 Norte 0 -- -- 77
2019-06-09 00:00:00 17.2 8 Norte 17 Norte 0 -- -- 80
2019-06-08 23:00:00 17.6 7 Norte 17 Norte 0 -- -- 78
2019-06-08 22:00:00 18 10 Nordeste 21 Nordeste 0 -- -- 74
2019-06-08 21:00:00 18.5 14 Nordeste 23 Nordeste 0 -- -- 70
2019-06-08 20:00:00 19.5 16 Nordeste 24 Nordeste 0 -- -- 62
2019-06-08 19:00:00 20.1 18 Nordeste 30 Nordeste 0 -- -- 57
2019-06-08 18:00:00 20.6 20 Nordeste 36 Nordeste 0 -- -- 56
2019-06-08 17:00:00 20.5 23 Nordeste 37 Norte 0 -- -- 54
2019-06-08 16:00:00 21.1 21 Nordeste 44 Nordeste 0 -- -- 53
2019-06-08 15:00:00 21.3 25 Nordeste 48 Nordeste 0 -- -- 50
2019-06-08 14:00:00 19.2 29 Nordeste 45 Nordeste 0 -- -- 54
2019-06-08 13:00:00 20.3 27 Nordeste 53 Nordeste 0 -- -- 49
2019-06-08 12:00:00 19.5 35 Nordeste 51 Nordeste 0 -- -- 57
2019-06-08 11:00:00 19.2 24 Nordeste 42 Nordeste 0 -- -- 59
2019-06-08 10:00:00 18.8 26 Nordeste 37 Nordeste 0 -- -- 60
2019-06-08 09:00:00 18.7 23 Nordeste 37 Norte 0 -- -- 61
2019-06-08 08:00:00 18.6 24 Nordeste 37 Nordeste 0 -- -- 57
2019-06-08 07:00:00 18 27 Nordeste 38 Nordeste 0 -- -- 65
2019-06-08 06:00:00 17.7 24 Nordeste 44 Norte 0 -- -- 82
2019-06-08 05:00:00 18.2 21 Norte 31 Norte 0 -- -- 87
2019-06-08 04:00:00 18.2 16 Norte 31 Norte 0 -- -- 87
2019-06-08 03:00:00 18.1 18 Norte 27 Norte 0 -- -- 87
2019-06-08 02:00:00 18.2 8 Norte 16 Norte 0 -- -- 88
2019-06-08 01:00:00 18.1 6 Norte 29 Norte 0 -- -- 88
2019-06-08 00:00:00 18.9 4 Sudoeste 7 Sudoeste 0 -- -- 82
2019-06-07 23:00:00 18.7 3 Sudoeste 5 Oeste 0 -- -- 80
2019-06-07 22:00:00 19.7 0 Calma 8 Nordeste 0 -- -- 79
2019-06-07 21:00:00 20.4 5 Norte 21 Norte 0 -- -- 76
2019-06-07 20:00:00 23.2 6 Norte 16 Norte 0 -- -- 58
2019-06-07 19:00:00 23.3 13 Norte 20 Norte 0 -- -- 60
2019-06-07 18:00:00 23.6 15 Nordeste 24 Nordeste 0 -- -- 56
2019-06-07 17:00:00 25.3 14 Norte 23 Norte 0 -- -- 48
2019-06-07 16:00:00 26.7 8 Norte 28 Norte 0 -- -- 42
2019-06-07 15:00:00 26.7 17 Sudoeste 40 Oeste 0 -- -- 45
2019-06-07 14:00:00 27.3 8 Norte 26 Norte 0 -- -- 34
2019-06-07 13:00:00 27.1 9 Oeste 23 Oeste 0 -- -- 33
2019-06-07 12:00:00 25.5 9 Norte 23 Oeste 0 -- -- 53
2019-06-07 11:00:00 25 18 Oeste 29 Oeste 0 -- -- 45
2019-06-07 10:00:00 22.9 12 Sur 19 Sur 0 -- -- 54
2019-06-07 09:00:00 21.3 5 Sudoeste 21 Sudeste 0 -- -- 62
2019-06-07 08:00:00 18.2 0 Calma 5 Sudeste 0 -- -- 88
2019-06-07 07:00:00 16.3 4 Sur 12 Norte 0 -- -- 91
2019-06-07 06:00:00 17 4 Sudeste 17 Sudeste 0 -- -- 90
2019-06-07 05:00:00 16.9 5 Sudeste 12 Sudeste 0 -- -- 90
2019-06-07 04:00:00 17.2 5 Sudeste 21 Sur 0 -- -- 88
2019-06-07 03:00:00 17.3 8 Sur 17 Sur 0 -- -- 88
2019-06-07 02:00:00 17.6 10 Sudeste 21 Sur 0 -- -- 87
2019-06-07 01:00:00 17.4 11 Sudeste 23 Sudeste 0 -- -- 86
2019-06-07 00:00:00 17.5 12 Sudeste 18 Sudeste 0 -- -- 84
2019-06-06 23:00:00 17.6 9 Sudeste 27 Sudeste 0 -- -- 83
2019-06-06 22:00:00 18 12 Sudeste 30 Sudeste 0 -- -- 80
2019-06-06 21:00:00 19 17 Sudeste 29 Sudeste 0 -- -- 73
2019-06-06 20:00:00 20.9 14 Sudeste 27 Sudeste 0 -- -- 62
2019-06-06 19:00:00 22.6 15 Sudeste 28 Sudeste 0 -- -- 53
2019-06-06 18:00:00 23.8 14 Sudeste 31 Este 0 -- -- 46
2019-06-06 17:00:00 23.8 21 Este 37 Este 0 -- -- 48
2019-06-06 16:00:00 24.5 19 Este 30 Este 0 -- -- 45
2019-06-06 15:00:00 24.2 13 Este 30 Sudeste 0 -- -- 43
2019-06-06 14:00:00 24.1 18 Este 29 Este 0 -- -- 43
2019-06-06 13:00:00 24.1 15 Este 27 Este 0 -- -- 43
2019-06-06 12:00:00 22.4 14 Nordeste 30 Nordeste 0 -- -- 48
2019-06-06 11:00:00 21 15 Nordeste 25 Nordeste 0 -- -- 53
2019-06-06 10:00:00 20.4 15 Nordeste 27 Nordeste 0 -- -- 52
2019-06-06 09:00:00 19.3 15 Nordeste 26 Nordeste 0 -- -- 58
2019-06-06 08:00:00 18 13 Nordeste 24 Nordeste 0 -- -- 66
2019-06-06 07:00:00 15.9 2 Nordeste 16 Nordeste 0 -- -- 74
2019-06-06 06:00:00 15.3 5 Nordeste 20 Nordeste 0 -- -- 74
2019-06-06 05:00:00 15.6 10 Nordeste 18 Norte 0 -- -- 74
2019-06-06 04:00:00 16 11 Nordeste 20 Nordeste 0 -- -- 74
2019-06-06 03:00:00 16.1 12 Nordeste 23 Nordeste 0 -- -- 76
2019-06-06 02:00:00 16.4 16 Nordeste 33 Nordeste 0 -- -- 74
2019-06-06 01:00:00 17.1 14 Norte 33 Norte 0 -- -- 79
2019-06-06 00:00:00 18.1 4 Sudoeste 19 Oeste 0 -- -- 66
2019-06-05 23:00:00 18.6 13 Oeste 22 Oeste 0 -- -- 68
2019-06-05 22:00:00 19.3 11 Oeste 17 Oeste 0 -- -- 65
2019-06-05 21:00:00 20.4 11 Oeste 33 Oeste 0 -- -- 64
2019-06-05 20:00:00 20.9 26 Oeste 46 Oeste 0 -- -- 66
2019-06-05 19:00:00 23.3 34 Oeste 55 Oeste 0 -- -- 41
2019-06-05 18:00:00 24.4 24 Oeste 42 Oeste 0 -- -- 44
2019-06-05 17:00:00 25.8 23 Oeste 38 Oeste 0 -- -- 45
2019-06-05 16:00:00 24.7 21 Sudoeste 37 Sudoeste 0 -- -- 64
2019-06-05 15:00:00 23.5 30 Sudoeste 45 Sudoeste 0 -- -- 67
2019-06-05 14:00:00 23.1 32 Sudoeste 51 Sur 0 -- -- 66
2019-06-05 13:00:00 22 35 Sudoeste 49 Sur 0 -- -- 70
2019-06-05 12:00:00 21.2 32 Sur 46 Sudoeste 0 -- -- 74
2019-06-05 11:00:00 21.4 29 Sur 40 Sur 0 -- -- 73
2019-06-05 10:00:00 21.1 26 Sur 38 Sur 0 -- -- 74
2019-06-05 09:00:00 20.6 17 Sur 30 Sur 0 -- -- 80
2019-06-05 08:00:00 19 13 Sur 27 Sur 0 -- -- 90
2019-06-05 07:00:00 17.9 12 Sur 19 Sudeste 0 -- -- 92
2019-06-05 06:00:00 17.2 8 Sur 17 Sudeste 0 -- -- 90
2019-06-05 05:00:00 17.5 14 Sudeste 20 Sudeste 0 -- -- 91
2019-06-05 04:00:00 17.7 14 Sudeste 18 Sudeste 0 -- -- 91
2019-06-05 03:00:00 18 8 Sur 27 Sur 0 -- -- 89
2019-06-05 02:00:00 18.7 20 Sur 32 Sur 0 -- -- 86
2019-06-05 01:00:00 19 21 Sur 35 Sudeste 0 -- -- 85
2019-06-05 00:00:00 19.4 22 Sur 32 Sur 0 -- -- 77
2019-06-04 23:00:00 19.7 12 Sur 21 Sudeste 0 -- -- 66
2019-06-04 22:00:00 21.2 14 Sur 23 Sudeste 0 -- -- 54
2019-06-04 21:00:00 23 14 Sur 27 Sudeste 0 -- -- 43
2019-06-04 20:00:00 24.8 16 Sur 30 Sur 0 -- -- 36
2019-06-04 19:00:00 25.9 20 Sur 31 Sur 0 -- -- 33
2019-06-04 18:00:00 26.5 21 Sudeste 32 Sudeste 0 -- -- 32
2019-06-04 17:00:00 27.9 18 Sur 37 Sur 0 -- -- 29
2019-06-04 16:00:00 27.8 20 Sur 31 Sudoeste 0 -- -- 29
2019-06-04 15:00:00 28 18 Sur 32 Sur 0 -- -- 29
2019-06-04 14:00:00 27.2 21 Sur 38 Sur 0 -- -- 30
2019-06-04 13:00:00 26.9 20 Sur 39 Sur 0 -- -- 31
2019-06-04 12:00:00 27.1 20 Sur 33 Sur 0 -- -- 32
2019-06-04 11:00:00 25.9 21 Sur 29 Sur 0 -- -- 36
2019-06-04 10:00:00 24.7 12 Sur 21 Sudeste 0 -- -- 40
2019-06-04 09:00:00 21.4 13 Sur 19 Sur 0 -- -- 60
2019-06-04 08:00:00 19 8 Sudeste 12 Sudeste 0 -- -- 87
2019-06-04 07:00:00 16.7 2 Sudeste 5 Sudeste 0 -- -- 90
2019-06-04 06:00:00 16.7 2 Sudoeste 10 Sur 0 -- -- 89
2019-06-04 05:00:00 16.7 5 Sudoeste 9 Sudoeste 0 -- -- 89
2019-06-04 04:00:00 17 7 Sur 13 Sur 0 -- -- 87
2019-06-04 03:00:00 17 9 Sudoeste 12 Sur 0 -- -- 86
2019-06-04 02:00:00 17.3 8 Sudoeste 26 Sur 0 -- -- 83
2019-06-04 01:00:00 18.6 18 Sur 27 Sur 0 -- -- 76
2019-06-04 00:00:00 19 17 Sur 26 Sur 0 -- -- 70
2019-06-03 23:00:00 18.4 6 Sur 13 Sudoeste 0 -- -- 68
2019-06-03 22:00:00 18.7 6 Sudoeste 15 Sudoeste 0 -- -- 69
2019-06-03 21:00:00 20.2 11 Sudoeste 22 Sudoeste 0 -- -- 55
2019-06-03 20:00:00 22.4 15 Sudoeste 22 Sur 0 -- -- 44
2019-06-03 19:00:00 22.9 15 Sur 26 Sur 0 -- -- 40
2019-06-03 18:00:00 25.2 18 Sur 32 Sudoeste 0 -- -- 36
2019-06-03 17:00:00 26.4 19 Sur 31 Sur 0 -- -- 31
2019-06-03 16:00:00 26.6 20 Sur 32 Sur 0 -- -- 30
2019-06-03 15:00:00 27.1 19 Sur 29 Sudoeste 0 -- -- 28
2019-06-03 14:00:00 26.2 17 Sur 30 Sudoeste 0 -- -- 30
2019-06-03 13:00:00 27.5 10 Sur 32 Sur 0 -- -- 29
2019-06-03 12:00:00 26.8 11 Sudoeste 24 Sudoeste 0 -- -- 29
2019-06-03 11:00:00 25 8 Sudoeste 16 Sur 0 -- -- 31
2019-06-03 10:00:00 23.6 10 Sur 17 Sudoeste 0 -- -- 35
2019-06-03 09:00:00 21 12 Sur 15 Sur 0 -- -- 54
2019-06-03 08:00:00 18.9 6 Sur 10 Sur 0 -- -- 78
2019-06-03 07:00:00 16.2 8 Sur 12 Sur 0 -- -- 87
2019-06-03 06:00:00 15.6 4 Sur 8 Sur 0 -- -- 91
2019-06-03 05:00:00 16 6 Sur 11 Sur 0 -- -- 89
2019-06-03 04:00:00 16.6 7 Sudoeste 13 Sudoeste 0 -- -- 87
2019-06-03 03:00:00 16.8 8 Sur 13 Sudoeste 0 -- -- 84
2019-06-03 02:00:00 17.2 6 Sudoeste 15 Sur 0 -- -- 79
2019-06-03 01:00:00 17.6 10 Sudoeste 17 Sudoeste 0 -- -- 75
2019-06-03 00:00:00 17.4 10 Sudoeste 15 Sudoeste 0 -- -- 78
2019-06-02 23:00:00 18 8 Sudoeste 15 Sudoeste 0 -- -- 74
2019-06-02 22:00:00 18.4 9 Sudoeste 18 Sur 0 -- -- 70
2019-06-02 21:00:00 20 13 Sur 20 Sur 0 -- -- 57
2019-06-02 20:00:00 22.5 15 Sudoeste 23 Sur 0 -- -- 44
2019-06-02 19:00:00 24.2 13 Sur 22 Sur 0 -- -- 35
2019-06-02 18:00:00 25 16 Sur 24 Sur 0 -- -- 32
2019-06-02 17:00:00 25.7 15 Sur 24 Sur 0 -- -- 30
2019-06-02 16:00:00 25.7 12 Sudoeste 29 Sudoeste 0 -- -- 32
2019-06-02 15:00:00 26 18 Sudoeste 28 Sudoeste 0 -- -- 33
2019-06-02 14:00:00 26.6 12 Sudoeste 19 Sur 0 -- -- 32
2019-06-02 13:00:00 25.9 10 Sudoeste 21 Sur 0 -- -- 35
2019-06-02 12:00:00 24.8 12 Sudoeste 23 Sudoeste 0 -- -- 34
2019-06-02 11:00:00 23.3 14 Sudoeste 22 Sudoeste 0 -- -- 38
2019-06-02 10:00:00 22.1 12 Sudoeste 18 Sudoeste 0 -- -- 44
2019-06-02 09:00:00 20.4 12 Sur 17 Sudoeste 0 -- -- 64
2019-06-02 08:00:00 19 6 Sur 12 Sur 0 -- -- 58
2019-06-02 07:00:00 15.7 5 Sur 8 Sudeste 0 -- -- 69
2019-06-02 06:00:00 15.2 5 Sudoeste 9 Sur 0 -- -- 77
2019-06-02 05:00:00 15.7 7 Sur 12 Sur 0 -- -- 87
2019-06-02 04:00:00 16 10 Sur 13 Sudoeste 0 -- -- 89
2019-06-02 03:00:00 16.2 10 Sur 13 Sudoeste 0 -- -- 87
2019-06-02 02:00:00 16.4 7 Sur 13 Sur 0 -- -- 84
2019-06-02 01:00:00 16.9 11 Sur 14 Sudoeste 0 -- -- 84
2019-06-02 00:00:00 16.8 6 Sur 13 Sudoeste 0 -- -- 83
2019-06-01 23:00:00 17.4 6 Sudoeste 11 Sur 0 -- -- 76
2019-06-01 22:00:00 18.2 8 Sur 19 Sur 0 -- -- 66
2019-06-01 21:00:00 19.5 13 Sudoeste 17 Sudoeste 0 -- -- 56
2019-06-01 20:00:00 22.5 12 Sudoeste 18 Sur 0 -- -- 45
2019-06-01 19:00:00 23.6 14 Sudoeste 24 Sur 0 -- -- 44
2019-06-01 18:00:00 23.8 15 Sudoeste 24 Sudoeste 0 -- -- 44
2019-06-01 17:00:00 24.4 15 Sur 28 Sudoeste 0 -- -- 43
2019-06-01 16:00:00 25.4 17 Sudoeste 28 Sudoeste 0 -- -- 42
2019-06-01 15:00:00 25.8 15 Sur 26 Sudoeste 0 -- -- 40
2019-06-01 14:00:00 25 19 Sudoeste 26 Sudoeste 0 -- -- 44
2019-06-01 13:00:00 24.6 15 Sudoeste 25 Sudoeste 0 -- -- 49
2019-06-01 12:00:00 24.3 12 Sur 22 Sudeste 0 -- -- 49
2019-06-01 11:00:00 23 12 Nordeste 19 Nordeste 0 -- -- 51
2019-06-01 10:00:00 22.6 5 Norte 10 Norte 0 -- -- 49
2019-06-01 09:00:00 20.8 4 Nordeste 8 Nordeste 0 -- -- 54
2019-06-01 08:00:00 18.2 0 Calma 4 Sudeste 0 -- -- 71
2019-06-01 07:00:00 14.9 0 Calma 4 Oeste 0 -- -- 76
2019-06-01 06:00:00 14.3 0 Calma 3 Sudoeste 0 -- -- 66
2019-06-01 05:00:00 13.9 0 Calma 4 Oeste 0 -- -- 64
2019-06-01 04:00:00 14.1 0 Calma 4 Oeste 0 -- -- 63
2019-06-01 03:00:00 13.6 0 Calma 5 Sur 0 -- -- 73
2019-06-01 02:00:00 14.5 4 Sur 7 Sur 0 -- -- 80
2019-06-01 01:00:00 14.3 3 Sur 6 Sur 0 -- -- 83
2019-06-01 00:00:00 14.8 2 Sudoeste 4 Oeste 0 -- -- 81
2019-05-31 23:00:00 15.5 3 Oeste 4 Oeste 0 -- -- 79
2019-05-31 22:00:00 17.1 2 Norte 9 Norte 0 -- -- 76
2019-05-31 21:00:00 18.9 4 Norte 10 Nordeste 0 -- -- 64
2019-05-31 20:00:00 21.3 8 Norte 16 Norte 0 -- -- 44
2019-05-31 19:00:00 21.7 12 Nordeste 20 Norte 0 -- -- 44
2019-05-31 18:00:00 22.5 13 Nordeste 21 Norte 0 -- -- 45
2019-05-31 17:00:00 22.8 12 Norte 22 Norte 0 -- -- 48
2019-05-31 16:00:00 22.3 16 Norte 25 Norte 0 -- -- 51
2019-05-31 15:00:00 22.6 18 Norte 25 Noroeste 0 -- -- 49
2019-05-31 14:00:00 22.3 16 Norte 26 Norte 0 -- -- 53
2019-05-31 13:00:00 21.6 15 Norte 25 Norte 0 -- -- 59
2019-05-31 12:00:00 21.3 15 Norte 23 Norte 0 -- -- 61
2019-05-31 11:00:00 20.9 15 Norte 25 Norte 0 -- -- 60
2019-05-31 10:00:00 20.6 15 Norte 25 Norte 0 -- -- 59
2019-05-31 09:00:00 19.8 12 Norte 22 Noroeste 0 -- -- 64
2019-05-31 08:00:00 18.4 8 Norte 19 Norte 0 -- -- 71
2019-05-31 07:00:00 16.2 6 Norte 13 Norte 0 -- -- 82
2019-05-31 06:00:00 15.4 6 Norte 13 Noroeste 0 -- -- 84
2019-05-31 05:00:00 15.4 5 Norte 12 Norte 0 -- -- 84
2019-05-31 04:00:00 15.8 8 Norte 17 Noroeste 0 -- -- 82
2019-05-31 03:00:00 16 7 Norte 16 Noroeste 0 -- -- 81
2019-05-31 02:00:00 15.9 4 Norte 14 Noroeste 0 -- -- 77
2019-05-31 01:00:00 16.5 5 Noroeste 13 Noroeste 0 -- -- 71
2019-05-31 00:00:00 16.6 6 Oeste 14 Noroeste 0 -- -- 67
2019-05-30 23:00:00 16.5 6 Noroeste 13 Noroeste 0 -- -- 66
2019-05-30 22:00:00 16.6 8 Oeste 16 Oeste 0 -- -- 66
2019-05-30 21:00:00 18.2 13 Oeste 24 Oeste 0 -- -- 53
2019-05-30 20:00:00 20.1 14 Noroeste 19 Oeste 0 -- -- 46
2019-05-30 19:00:00 20.4 15 Noroeste 24 Noroeste 0 -- -- 48
2019-05-30 18:00:00 20.4 17 Norte 29 Norte 0 -- -- 44
2019-05-30 17:00:00 20.4 21 Norte 31 Norte 0 -- -- 47
2019-05-30 16:00:00 20.7 21 Norte 35 Norte 0 -- -- 50
2019-05-30 15:00:00 20.5 24 Norte 43 Norte 0 -- -- 50
2019-05-30 14:00:00 20.1 27 Noroeste 45 Norte 0 -- -- 53
2019-05-30 13:00:00 19.9 26 Norte 42 Norte 0 -- -- 56
2019-05-30 12:00:00 19.7 24 Noroeste 44 Norte 0 -- -- 57
2019-05-30 11:00:00 18.9 28 Noroeste 42 Norte 0 -- -- 62
2019-05-30 10:00:00 18.1 31 Norte 46 Noroeste 0 -- -- 70
2019-05-30 09:00:00 17.8 28 Norte 38 Norte 0 -- -- 77
2019-05-30 08:00:00 17.8 15 Noroeste 28 Noroeste 0 -- -- 74
2019-05-30 07:00:00 15.7 8 Noroeste 14 Noroeste 0 -- -- 83
2019-05-30 06:00:00 14.5 7 Oeste 19 Oeste 0 -- -- 84
2019-05-30 05:00:00 15.3 15 Oeste 21 Oeste 0 -- -- 79
2019-05-30 04:00:00 14.9 11 Oeste 19 Oeste 0 -- -- 78
2019-05-30 03:00:00 14.7 7 Oeste 18 Oeste 0 -- -- 71
2019-05-30 02:00:00 15.5 14 Oeste 21 Oeste 0 -- -- 71
2019-05-30 01:00:00 14.8 11 Oeste 15 Sudoeste 0 -- -- 69
2019-05-30 00:00:00 14.7 12 Oeste 17 Oeste 0 -- -- 69
2019-05-29 23:00:00 14.9 10 Oeste 15 Oeste 0 -- -- 66
2019-05-29 22:00:00 15.4 8 Sudoeste 10 Sudoeste 0 -- -- 65
2019-05-29 21:00:00 16.8 3 Noroeste 22 Norte 0 -- -- 58
2019-05-29 20:00:00 18.2 13 Norte 27 Norte 0 -- -- 53
2019-05-29 19:00:00 18.1 18 Norte 33 Norte 0 -- -- 55
2019-05-29 18:00:00 18.4 20 Norte 37 Norte 0 -- -- 57
2019-05-29 17:00:00 19 24 Norte 44 Norte 0 -- -- 54
2019-05-29 16:00:00 18.9 29 Norte 44 Norte 0 -- -- 54
2019-05-29 15:00:00 18.5 23 Norte 41 Norte 0 -- -- 53
2019-05-29 14:00:00 18.8 26 Norte 49 Noroeste 0 -- -- 47
2019-05-29 13:00:00 18.7 33 Norte 47 Norte 0 -- -- 47
2019-05-29 12:00:00 18.1 27 Norte 42 Norte 0 -- -- 48
2019-05-29 11:00:00 17.1 26 Norte 38 Norte 0 -- -- 50
2019-05-29 10:00:00 16.5 25 Norte 41 Norte 0 -- -- 51
2019-05-29 09:00:00 15.8 27 Norte 44 Norte 0 -- -- 54
2019-05-29 08:00:00 15.9 19 Norte 40 Norte 0 -- -- 59
2019-05-29 07:00:00 15.8 24 Norte 42 Norte 0 -- -- 57
2019-05-29 06:00:00 16.1 15 Norte 36 Norte 0 -- -- 61
2019-05-29 05:00:00 15.8 23 Norte 39 Nordeste 0 -- -- 64
2019-05-29 04:00:00 15.3 20 Norte 36 Norte 0 -- -- 69
2019-05-29 03:00:00 15.3 20 Norte 33 Norte 0 -- -- 74
2019-05-29 02:00:00 15.3 17 Norte 37 Norte 0 -- -- 71
2019-05-29 01:00:00 16.1 19 Nordeste 32 Norte 0 -- -- 66
2019-05-29 00:00:00 16.5 15 Norte 23 Norte 0 -- -- 66
2019-05-28 23:00:00 16.5 10 Nordeste 21 Nordeste 0 -- -- 64
2019-05-28 22:00:00 16.8 15 Nordeste 29 Nordeste 0 -- -- 61
2019-05-28 21:00:00 17.3 15 Nordeste 28 Nordeste 0 -- -- 59
2019-05-28 20:00:00 17.1 15 Nordeste 27 Nordeste 0 -- -- 67
2019-05-28 19:00:00 16.9 21 Nordeste 30 Nordeste 0 -- -- 67
2019-05-28 18:00:00 17.4 17 Nordeste 32 Nordeste 0 -- -- 63
2019-05-28 17:00:00 18 21 Nordeste 38 Nordeste 0 -- -- 60
2019-05-28 16:00:00 19.5 24 Nordeste 35 Nordeste 0 -- -- 58
2019-05-28 15:00:00 18.6 21 Nordeste 35 Este 0 -- -- 63
2019-05-28 14:00:00 19.4 21 Nordeste 33 Nordeste 0 -- -- 65
2019-05-28 13:00:00 18.4 15 Nordeste 28 Nordeste 0 -- -- 74
2019-05-28 12:00:00 18.1 20 Nordeste 29 Nordeste 0 -- -- 75
2019-05-28 11:00:00 21.7 11 Sudoeste 19 Sudoeste 0 -- -- 62
2019-05-28 10:00:00 19.8 15 Sudoeste 21 Sudoeste 0 -- -- 69
2019-05-28 09:00:00 19.4 12 Sur 22 Sudoeste 0 -- -- 76
2019-05-28 08:00:00 17.8 12 Sudoeste 21 Sudoeste 0 -- -- 87
2019-05-28 07:00:00 17.2 14 Sudoeste 22 Sudoeste 0 -- -- 90
2019-05-28 06:00:00 16.9 13 Sudoeste 22 Sudoeste 0 -- -- 91
2019-05-28 05:00:00 15.9 14 Sudoeste 21 Sur 0 -- -- 89
2019-05-28 04:00:00 15.8 10 Sur 14 Sur 0 -- -- 85
2019-05-28 03:00:00 14.9 3 Oeste 5 Oeste 0 -- -- 87
2019-05-28 02:00:00 14.8 0 Calma 8 Sudoeste 0 -- -- 83
2019-05-28 01:00:00 15.7 5 Sudoeste 10 Sur 0 -- -- 81
2019-05-28 00:00:00 15.4 2 Sudoeste 12 Sudeste 0 -- -- 76
2019-05-27 23:00:00 16.2 8 Sur 12 Sur 0 -- -- 71
2019-05-27 22:00:00 16.7 3 Sur 7 Sudoeste 0 -- -- 70
2019-05-27 21:00:00 17.7 4 Nordeste 10 Nordeste 0 -- -- 64
2019-05-27 20:00:00 18.7 8 Nordeste 19 Nordeste 0 -- -- 61
2019-05-27 19:00:00 19.2 12 Nordeste 28 Nordeste 0 -- -- 61
2019-05-27 18:00:00 19.3 12 Norte 22 Norte 0 -- -- 62
2019-05-27 17:00:00 18.8 14 Norte 30 Norte 0 -- -- 63
2019-05-27 16:00:00 20 19 Norte 32 Norte 0 -- -- 58
2019-05-27 15:00:00 19.8 22 Norte 33 Norte 0 -- -- 59
2019-05-27 14:00:00 20 20 Norte 31 Norte 0 -- -- 58
2019-05-27 13:00:00 20.2 21 Noroeste 37 Norte 0 -- -- 57
2019-05-27 12:00:00 20.4 22 Noroeste 40 Norte 0 -- -- 55
2019-05-27 11:00:00 20.3 24 Norte 50 Norte 0 -- -- 55
2019-05-27 10:00:00 19.7 24 Norte 43 Noroeste 0 -- -- 58
2019-05-27 09:00:00 19.2 24 Norte 35 Norte 0 -- -- 60
2019-05-27 08:00:00 18.3 15 Noroeste 33 Norte 0 -- -- 73
2019-05-27 07:00:00 17.4 19 Noroeste 36 Oeste 0 -- -- 72
2019-05-27 06:00:00 16.9 15 Noroeste 30 Noroeste 0 -- -- 72
2019-05-27 05:00:00 17.3 16 Noroeste 29 Oeste 0 -- -- 66
2019-05-27 04:00:00 17.9 14 Noroeste 30 Noroeste 0 -- -- 61
2019-05-27 03:00:00 17.3 14 Noroeste 41 Oeste 0 -- -- 69
2019-05-27 02:00:00 18.1 19 Noroeste 32 Noroeste 0 -- -- 59
2019-05-27 01:00:00 17.4 13 Oeste 22 Noroeste 0 -- -- 69
2019-05-27 00:00:00 16.9 7 Oeste 16 Noroeste 0 -- -- 70
2019-05-26 23:00:00 17.3 8 Noroeste 17 Noroeste 0 -- -- 69
2019-05-26 22:00:00 16.7 10 Noroeste 28 Norte 0 -- -- 78
2019-05-26 21:00:00 17.1 18 Norte 37 Norte 0 -- -- 74
2019-05-26 20:00:00 17.6 21 Norte 36 Norte 0 -- -- 68
2019-05-26 19:00:00 17.1 27 Norte 55 Norte 0 -- -- 70
2019-05-26 18:00:00 18.3 36 Norte 57 Norte 0 -- -- 62
2019-05-26 17:00:00 18.8 36 Norte 54 Norte 0 -- -- 61
2019-05-26 16:00:00 19.3 31 Norte 52 Norte 0 -- -- 59
2019-05-26 15:00:00 19.6 32 Norte 48 Norte 0 -- -- 57
2019-05-26 14:00:00 19.8 31 Norte 46 Norte 0 -- -- 57
2019-05-26 13:00:00 18.8 27 Norte 51 Norte 0 -- -- 60
2019-05-26 12:00:00 18.4 31 Norte 51 Norte 0 -- -- 60
2019-05-26 11:00:00 18.5 26 Norte 52 Norte 0 -- -- 61
2019-05-26 10:00:00 17.2 21 Norte 40 Norte 0 -- -- 68
2019-05-26 09:00:00 16.1 18 Norte 43 Norte 0.2 -- -- 77
2019-05-26 08:00:00 17 23 Norte 48 Norte 0 -- -- 70
2019-05-26 07:00:00 17 26 Norte 46 Norte 0 -- -- 70
2019-05-26 06:00:00 17 27 Norte 47 Norte 0 -- -- 69
2019-05-26 05:00:00 17 26 Norte 51 Norte 0.2 -- -- 78
2019-05-26 04:00:00 17.2 24 Norte 44 Norte 0 -- -- 71
2019-05-26 03:00:00 17.4 26 Norte 40 Norte 0 -- -- 69
2019-05-26 02:00:00 17.2 21 Norte 39 Norte 0 -- -- 72
2019-05-26 01:00:00 16.6 15 Norte 37 Norte 0 -- -- 81
2019-05-26 00:00:00 17.2 21 Norte 33 Norte 0 -- -- 75
2019-05-25 23:00:00 16.9 14 Norte 28 Norte 0 -- -- 79
2019-05-25 22:00:00 16.7 16 Nordeste 33 Norte 0 -- -- 81
2019-05-25 21:00:00 16.4 16 Norte 33 Norte 0 -- -- 83
2019-05-25 20:00:00 16.5 23 Norte 32 Norte 0 -- -- 82
2019-05-25 19:00:00 16.8 24 Norte 36 Norte 0 -- -- 82
2019-05-25 18:00:00 16.8 23 Norte 39 Norte 0 -- -- 81
2019-05-25 17:00:00 17.1 27 Norte 43 Norte 0 -- -- 78
2019-05-25 16:00:00 17.2 28 Norte 44 Norte 0 -- -- 76
2019-05-25 15:00:00 17.4 25 Norte 35 Nordeste 0 -- -- 74
2019-05-25 14:00:00 16.9 21 Norte 35 Norte 0 -- -- 79
2019-05-25 13:00:00 16.7 19 Norte 34 Norte 0 -- -- 80
2019-05-25 12:00:00 16.2 17 Norte 29 Norte 0 -- -- 85
2019-05-25 11:00:00 16.3 18 Norte 31 Nordeste 0 -- -- 82
2019-05-25 10:00:00 16.2 17 Norte 33 Norte 0 -- -- 82
2019-05-25 09:00:00 16.1 15 Norte 26 Norte 0 -- -- 81
2019-05-25 08:00:00 16.3 10 Nordeste 18 Nordeste 0 -- -- 77
2019-05-25 07:00:00 15.9 9 Norte 14 Norte 0 -- -- 80
2019-05-25 06:00:00 15.4 6 Norte 13 Norte 0 -- -- 81
2019-05-25 05:00:00 15.5 8 Norte 13 Norte 0 -- -- 81
2019-05-25 04:00:00 15.3 5 Norte 10 Norte 0 -- -- 80
2019-05-25 03:00:00 15.2 8 Nordeste 14 Norte 0 -- -- 81
2019-05-25 02:00:00 15.1 8 Norte 15 Nordeste 0 -- -- 83
2019-05-25 01:00:00 15.3 8 Norte 14 Nordeste 0 -- -- 83
2019-05-25 00:00:00 15.3 8 Norte 12 Nordeste 0 -- -- 86
2019-05-24 23:00:00 15.6 8 Norte 11 Nordeste 0 -- -- 88
2019-05-24 22:00:00 15.7 5 Nordeste 9 Nordeste 0 -- -- 86
2019-05-24 21:00:00 15.4 6 Nordeste 16 Nordeste 0.4 -- -- 83
2019-05-24 20:00:00 16.7 9 Nordeste 15 Norte 0 -- -- 84
2019-05-24 19:00:00 17.3 10 Nordeste 16 Nordeste 0 -- -- 81
2019-05-24 18:00:00 17.5 11 Nordeste 22 Nordeste 0 -- -- 81
2019-05-24 17:00:00 18.8 13 Nordeste 22 Nordeste 0 -- -- 70
2019-05-24 16:00:00 19.3 12 Nordeste 21 Nordeste 0 -- -- 59
2019-05-24 15:00:00 19.9 12 Norte 26 Norte 0 -- -- 54
2019-05-24 14:00:00 21.7 15 Norte 22 Norte 0 -- -- 35
2019-05-24 13:00:00 22.8 13 Norte 24 Nordeste 0 -- -- 36
2019-05-24 12:00:00 24.2 10 Nordeste 18 Nordeste 0 -- -- 37
2019-05-24 11:00:00 22.9 15 Norte 21 Norte 0 -- -- 40
2019-05-24 10:00:00 22 10 Sudoeste 14 Sudoeste 0 -- -- 38
2019-05-24 09:00:00 20.1 9 Sur 17 Sudoeste 0 -- -- 48
2019-05-24 08:00:00 17.9 13 Sur 17 Sudoeste 0 -- -- 71
2019-05-24 07:00:00 15.9 8 Sur 15 Sudoeste 0 -- -- 84
2019-05-24 06:00:00 15.9 11 Sur 16 Sur 0 -- -- 80
2019-05-24 05:00:00 16.2 13 Sur 19 Sudoeste 0 -- -- 76
2019-05-24 04:00:00 16.4 12 Sur 17 Sur 0 -- -- 73
2019-05-24 03:00:00 16.2 8 Sur 15 Sur 0 -- -- 77
2019-05-24 02:00:00 16.5 12 Sur 19 Sur 0 -- -- 77
2019-05-24 01:00:00 16.6 16 Sudoeste 21 Sur 0 -- -- 79
2019-05-24 00:00:00 16.5 13 Sudoeste 17 Sur 0 -- -- 81
2019-05-23 23:00:00 16.9 4 Sur 21 Sur 0 -- -- 79
2019-05-23 22:00:00 17.6 17 Sur 28 Sur 0 -- -- 77
2019-05-23 21:00:00 18.4 19 Sur 33 Sur 0 -- -- 67
2019-05-23 20:00:00 19.7 19 Sur 32 Sur 0 -- -- 43
2019-05-23 19:00:00 21.9 20 Sur 29 Sur 0 -- -- 34
2019-05-23 18:00:00 22.1 24 Sur 34 Sur 0 -- -- 36
2019-05-23 17:00:00 23.9 19 Sur 32 Sur 0 -- -- 28
2019-05-23 16:00:00 24.3 21 Sudoeste 28 Sudoeste 0 -- -- 27
2019-05-23 15:00:00 24.9 13 Sudoeste 26 Sudoeste 0 -- -- 25
2019-05-23 14:00:00 24.7 15 Sudoeste 26 Sudoeste 0 -- -- 27
2019-05-23 13:00:00 25.2 15 Sudoeste 26 Sudoeste 0 -- -- 27
2019-05-23 12:00:00 24.2 17 Sur 24 Sur 0 -- -- 32
2019-05-23 11:00:00 24.1 8 Oeste 20 Sudoeste 0 -- -- 32
2019-05-23 10:00:00 22.7 5 Oeste 17 Sudoeste 0 -- -- 37
2019-05-23 09:00:00 20.1 8 Sudoeste 16 Oeste 0 -- -- 46
2019-05-23 08:00:00 17.2 10 Oeste 17 Oeste 0 -- -- 69
2019-05-23 07:00:00 15.2 7 Sur 13 Sudoeste 0 -- -- 78
2019-05-23 06:00:00 14.7 9 Sudoeste 12 Sudoeste 0 -- -- 77
2019-05-23 05:00:00 14.9 9 Sudoeste 23 Sudoeste 0 -- -- 86
2019-05-23 04:00:00 15.7 18 Sudoeste 25 Sudoeste 0 -- -- 91
2019-05-23 03:00:00 15.6 10 Sur 15 Sur 0 -- -- 89
2019-05-23 02:00:00 15.7 12 Sur 16 Sur 0 -- -- 88
2019-05-23 01:00:00 15.8 12 Sur 23 Sudoeste 0 -- -- 89
2019-05-23 00:00:00 15.9 11 Sudoeste 19 Sur 0 -- -- 86
2019-05-22 23:00:00 16.2 13 Sudoeste 19 Sudoeste 0 -- -- 81
2019-05-22 22:00:00 16.6 8 Sudoeste 19 Sur 0 -- -- 77
2019-05-22 21:00:00 17.8 13 Sur 25 Sudoeste 0 -- -- 70
2019-05-22 20:00:00 19.5 17 Sudoeste 23 Sudoeste 0 -- -- 58
2019-05-22 19:00:00 21.3 14 Sur 25 Sudoeste 0 -- -- 45
2019-05-22 18:00:00 22.1 17 Sudoeste 24 Sudoeste 0 -- -- 45
2019-05-22 17:00:00 23 14 Sur 28 Sudoeste 0 -- -- 44
2019-05-22 16:00:00 23.7 10 Sudoeste 22 Sudoeste 0 -- -- 43
2019-05-22 15:00:00 23.5 10 Sudeste 19 Sur 0 -- -- 45
2019-05-22 14:00:00 22.2 5 Nordeste 21 Este 0 -- -- 40
2019-05-22 13:00:00 23.5 12 Nordeste 22 Nordeste 0 -- -- 37
2019-05-22 12:00:00 22.6 11 Nordeste 19 Norte 0 -- -- 40
2019-05-22 11:00:00 20.8 10 Nordeste 18 Norte 0 -- -- 47
2019-05-22 10:00:00 20.5 8 Norte 14 Norte 0 -- -- 48
2019-05-22 09:00:00 19.1 9 Norte 12 Norte 0 -- -- 61
2019-05-22 08:00:00 16.8 3 Sur 10 Sur 0 -- -- 91
2019-05-22 07:00:00 15 5 Sudoeste 11 Sur 0 -- -- 93
2019-05-22 06:00:00 14.6 7 Sur 10 Sur 0 -- -- 92
2019-05-22 05:00:00 14.4 6 Sur 11 Sur 0 -- -- 91
2019-05-22 04:00:00 14.1 9 Sudoeste 12 Sur 0 -- -- 90
2019-05-22 03:00:00 14.7 9 Sudoeste 14 Sudoeste 0 -- -- 88
2019-05-22 02:00:00 14.6 9 Sudoeste 17 Sudoeste 0 -- -- 86
2019-05-22 01:00:00 14.7 12 Sudoeste 16 Sudoeste 0 -- -- 87
2019-05-22 00:00:00 15 9 Sur 12 Sudoeste 0 -- -- 83